createdAt,value
2023-01-07T00:01:57.772Z,56.05
2023-01-07T00:06:04.089Z,59.53
2023-01-07T00:10:06.354Z,60.60
2023-01-07T00:14:10.920Z,63.25
2023-01-07T00:18:13.367Z,64.70
2023-01-07T00:22:29.527Z,63.45
2023-01-07T00:26:36.410Z,54.53
2023-01-07T00:30:38.893Z,53.58
2023-01-07T00:34:42.323Z,51.63
2023-01-07T00:38:44.187Z,50.67
2023-01-07T00:42:55.704Z,52.97
2023-01-07T00:46:59.169Z,48.85
2023-01-07T00:51:01.413Z,49.63
2023-01-07T00:55:03.558Z,56.17
2023-01-07T00:59:05.939Z,46.45
2023-01-07T01:03:10.564Z,50.10
2023-01-07T01:07:12.937Z,51.47
2023-01-07T01:11:16.347Z,63.83
2023-01-07T01:15:18.771Z,61.05
2023-01-07T01:19:20.584Z,58.38
2023-01-07T01:23:22.854Z,66.80
2023-01-07T01:27:24.989Z,61.58
2023-01-07T01:31:27.193Z,66.93
2023-01-07T01:35:29.324Z,66.72
2023-01-07T01:39:32.844Z,63.40
2023-01-07T01:43:38.606Z,64.28
2023-01-07T01:47:49.653Z,58.13
2023-01-07T01:52:14.197Z,55.95
2023-01-07T01:56:25.647Z,57.50
2023-01-07T02:00:28.853Z,51.13
2023-01-07T02:04:32.283Z,62.15
2023-01-07T02:08:34.318Z,50.50
2023-01-07T02:12:51.971Z,52.22
2023-01-07T02:17:10.047Z,56.00
2023-01-07T02:21:41.028Z,61.47
2023-01-07T02:26:22.055Z,57.97
2023-01-07T02:30:35.922Z,55.33
2023-01-07T02:35:05.369Z,60.15
2023-01-07T02:39:31.161Z,57.53
2023-01-07T02:43:54.846Z,65.63
2023-01-07T02:48:13.362Z,59.05
2023-01-07T02:52:23.264Z,61.10
2023-01-07T02:56:37.585Z,56.33
2023-01-07T03:01:20.866Z,62.42
2023-01-07T03:05:53.002Z,56.90
2023-01-07T03:10:04.183Z,62.75
2023-01-07T03:18:29.154Z,66.03
2023-01-07T03:22:37.537Z,69.65
2023-01-07T03:26:44.200Z,68.68
2023-01-07T03:30:48.221Z,69.30
2023-01-07T03:34:51.051Z,71.72
2023-01-07T03:38:55.114Z,62.45
2023-01-07T03:42:59.669Z,64.82
2023-01-07T03:47:02.447Z,67.55
2023-01-07T03:51:04.603Z,64.32
2023-01-07T03:55:07.453Z,69.18
2023-01-07T03:59:09.478Z,70.43
2023-01-07T04:03:11.942Z,62.15
2023-01-07T04:07:17.118Z,65.90
2023-01-07T04:11:19.498Z,66.78
2023-01-07T04:15:22.661Z,71.78
2023-01-07T04:19:25.907Z,62.60
2023-01-07T04:23:28.832Z,73.03
2023-01-07T04:27:31.207Z,59.85
2023-01-07T04:31:32.965Z,58.28
2023-01-07T04:35:35.457Z,59.22
2023-01-07T04:39:38.117Z,57.33
2023-01-07T04:43:40.083Z,57.95
2023-01-07T04:47:42.953Z,58.95
2023-01-07T04:51:45.381Z,52.15
2023-01-07T04:55:47.736Z,58.33
2023-01-07T04:59:50.970Z,55.28
2023-01-07T05:03:52.838Z,54.47
2023-01-07T05:07:55.300Z,54.72
2023-01-07T05:11:58.579Z,57.42
2023-01-07T05:16:02.691Z,54.97
2023-01-07T05:20:06.680Z,54.38
2023-01-07T05:24:09.503Z,69.45
2023-01-07T05:28:12.260Z,55.28
2023-01-07T05:32:15.727Z,56.72
2023-01-07T05:36:17.548Z,58.83
2023-01-07T05:40:19.728Z,53.95
2023-01-07T05:44:21.814Z,60.35
2023-01-07T05:48:23.773Z,57.20
2023-01-07T05:52:25.449Z,57.92
2023-01-07T05:56:27.337Z,50.22
2023-01-07T06:00:29.018Z,51.13
2023-01-07T06:04:31.084Z,54.65
2023-01-07T06:08:36.964Z,48.47
2023-01-07T06:12:38.913Z,46.42
2023-01-07T06:16:40.971Z,53.28
2023-01-07T06:20:43.111Z,48.97
2023-01-07T06:24:44.784Z,49.65
2023-01-07T06:28:46.778Z,54.53
2023-01-07T06:32:48.578Z,52.25
2023-01-07T06:36:50.507Z,51.95
2023-01-07T06:40:52.213Z,44.60
2023-01-07T06:44:54.448Z,53.63
2023-01-07T06:48:56.226Z,50.60
2023-01-07T06:52:58.216Z,48.63
2023-01-07T06:56:59.953Z,55.40
2023-01-07T07:01:06.564Z,48.03
2023-01-07T07:05:08.553Z,43.45
2023-01-07T07:09:10.801Z,52.92
2023-01-07T07:13:12.595Z,49.08
2023-01-07T07:17:14.579Z,50.55
2023-01-07T07:21:16.340Z,60.65
2023-01-07T07:25:18.330Z,50.75
2023-01-07T07:29:21.730Z,56.25
2023-01-07T07:33:23.877Z,46.40
2023-01-07T07:37:25.810Z,47.97
2023-01-07T07:41:27.925Z,47.40
2023-01-07T07:45:29.787Z,47.78
2023-01-07T07:49:31.889Z,45.05
2023-01-07T07:53:33.762Z,49.22
2023-01-07T07:57:35.896Z,55.70
2023-01-07T08:01:37.895Z,46.92
2023-01-07T08:05:42.236Z,46.78
2023-01-07T08:09:44.114Z,51.58
2023-01-07T08:13:46.146Z,55.53
2023-01-07T08:17:48.194Z,56.13
2023-01-07T08:21:51.680Z,51.15
2023-01-07T08:25:53.663Z,48.33
2023-01-07T08:29:56.417Z,50.45
2023-01-07T08:33:58.281Z,49.65
2023-01-07T08:38:04.988Z,50.63
2023-01-07T08:42:06.910Z,45.88
2023-01-07T08:46:08.857Z,50.95
2023-01-07T08:50:10.562Z,46.08
2023-01-07T08:54:12.528Z,48.28
2023-01-07T08:58:14.356Z,47.53
2023-01-07T09:02:18.551Z,47.88
2023-01-07T09:06:20.375Z,45.45
2023-01-07T09:10:23.617Z,49.35
2023-01-07T09:14:25.569Z,46.92
2023-01-07T09:18:27.596Z,46.13
2023-01-07T09:22:34.171Z,43.67
2023-01-07T09:26:36.211Z,45.92
2023-01-07T09:30:37.904Z,45.13
2023-01-07T09:34:39.870Z,43.33
2023-01-07T09:38:41.620Z,43.88
2023-01-07T09:43:01.493Z,44.38
2023-01-07T09:47:05.156Z,43.30
2023-01-07T09:51:15.439Z,49.13
2023-01-07T09:55:22.579Z,44.85
2023-01-07T09:59:24.737Z,69.47
2023-01-07T10:03:29.991Z,71.55
2023-01-07T10:07:40.002Z,59.15
2023-01-07T10:12:05.014Z,54.88
2023-01-07T10:16:26.826Z,47.20
2023-01-07T10:20:50.093Z,48.78
2023-01-07T10:24:57.792Z,55.13
2023-01-07T10:29:22.307Z,58.55
2023-01-07T10:33:29.349Z,51.25
2023-01-07T10:37:34.213Z,47.63
2023-01-07T10:41:49.942Z,46.17
2023-01-07T10:46:25.961Z,55.20
2023-01-07T10:51:04.841Z,50.35
2023-01-07T10:55:22.241Z,46.90
2023-01-07T10:59:24.872Z,45.72
2023-01-07T11:03:27.000Z,50.33
2023-01-07T11:07:45.528Z,44.45
2023-01-07T11:15:54.608Z,57.90
2023-01-07T11:19:56.601Z,49.67
2023-01-07T11:23:58.403Z,46.85
2023-01-07T11:28:03.284Z,42.85
2023-01-07T11:32:06.426Z,43.78
2023-01-07T11:36:09.523Z,42.35
2023-01-07T11:40:14.168Z,38.88
2023-01-07T11:44:16.992Z,39.10
2023-01-07T11:48:34.363Z,44.47
2023-01-07T11:52:36.564Z,43.63
2023-01-07T11:56:38.240Z,43.28
2023-01-07T12:00:40.310Z,44.63
2023-01-07T12:04:42.014Z,42.25
2023-01-07T12:08:53.329Z,41.50
2023-01-07T12:12:55.663Z,47.15
2023-01-07T12:17:11.557Z,47.53
2023-01-07T12:21:35.751Z,45.63
2023-01-07T12:25:59.649Z,48.60
2023-01-07T12:30:17.969Z,49.42
2023-01-07T12:34:34.693Z,54.30
2023-01-07T12:38:46.007Z,52.83
2023-01-07T12:42:55.020Z,52.97
2023-01-07T12:47:30.478Z,47.08
2023-01-07T12:51:36.995Z,46.50
2023-01-07T12:55:52.096Z,46.97
2023-01-07T13:00:04.468Z,47.95
2023-01-07T13:04:28.666Z,50.67
2023-01-07T13:08:57.345Z,50.85
2023-01-07T13:13:06.521Z,48.53
2023-01-07T13:17:37.430Z,46.13
2023-01-07T13:21:42.024Z,44.58
2023-01-07T13:26:09.460Z,45.22
2023-01-07T13:30:24.817Z,52.25
2023-01-07T13:34:33.580Z,51.65
2023-01-07T13:38:41.384Z,52.67
2023-01-07T13:42:52.718Z,54.40
2023-01-07T13:46:55.565Z,53.47
2023-01-07T13:51:07.006Z,50.35
2023-01-07T13:55:29.545Z,55.30
2023-01-07T13:59:48.102Z,56.00
2023-01-07T14:04:21.554Z,62.38
2023-01-07T14:08:28.378Z,54.13
2023-01-07T14:12:46.466Z,57.95
2023-01-07T14:17:14.121Z,57.05
2023-01-07T14:21:20.586Z,60.50
2023-01-07T14:25:25.539Z,55.25
2023-01-07T14:29:47.702Z,47.78
2023-01-07T14:34:01.483Z,44.58
2023-01-07T14:38:29.027Z,45.92
2023-01-07T14:42:44.698Z,43.97
2023-01-07T14:46:47.950Z,44.47
2023-01-07T14:51:04.753Z,44.65
2023-01-07T14:55:34.228Z,46.65
2023-01-07T15:00:03.944Z,48.83
2023-01-07T15:04:32.865Z,45.15
2023-01-07T15:09:13.653Z,45.25
2023-01-07T15:13:38.345Z,42.20
2023-01-07T15:17:40.770Z,39.65
2023-01-07T15:21:58.856Z,36.83
2023-01-07T15:26:09.697Z,38.05
2023-01-07T15:30:37.587Z,34.08
2023-01-07T15:34:40.148Z,34.42
2023-01-07T15:38:50.937Z,33.70
2023-01-07T15:42:56.994Z,31.27
2023-01-07T15:46:58.686Z,28.50
2023-01-07T15:51:00.751Z,30.85
2023-01-07T15:55:21.575Z,29.98
2023-01-07T15:59:29.215Z,28.73
2023-01-07T16:03:39.580Z,30.63
2023-01-07T16:07:58.720Z,30.83
2023-01-07T16:12:00.690Z,33.30
2023-01-07T16:16:05.679Z,31.15
2023-01-07T16:20:19.019Z,32.35
2023-01-07T16:24:20.910Z,31.30
2023-01-07T16:28:29.144Z,43.83
2023-01-07T16:32:32.183Z,41.97
2023-01-07T16:36:41.559Z,42.35
2023-01-07T16:40:45.294Z,39.17
2023-01-07T16:44:49.418Z,35.15
2023-01-07T16:49:29.313Z,35.38
2023-01-07T16:57:42.234Z,32.38
2023-01-07T17:01:44.467Z,31.25
2023-01-07T17:06:07.352Z,35.88
2023-01-07T17:10:20.665Z,40.65
2023-01-07T17:14:34.300Z,39.92
2023-01-07T17:18:36.236Z,52.50
2023-01-07T17:22:38.854Z,45.78
2023-01-07T17:26:42.098Z,43.60
2023-01-07T17:30:43.996Z,55.88
2023-01-07T17:34:45.975Z,45.90
2023-01-07T17:38:47.840Z,46.55
2023-01-07T17:43:09.388Z,43.40
2023-01-07T17:47:11.439Z,49.20
2023-01-07T17:51:14.001Z,42.40
2023-01-07T17:55:19.281Z,42.60
2023-01-07T17:59:23.349Z,39.58
2023-01-07T18:03:25.937Z,37.78
2023-01-07T18:07:27.617Z,42.63
2023-01-07T18:11:48.566Z,44.33
2023-01-07T18:15:50.416Z,44.47
2023-01-07T18:19:52.526Z,47.47
2023-01-07T18:23:54.472Z,47.90
2023-01-07T18:27:56.547Z,53.42
2023-01-07T18:31:58.553Z,47.83
2023-01-07T18:36:01.167Z,49.70
2023-01-07T18:40:04.354Z,54.15
2023-01-07T18:44:06.755Z,52.65
2023-01-07T18:48:08.604Z,58.17
2023-01-07T18:52:12.783Z,51.28
2023-01-07T18:56:14.996Z,57.55
2023-01-07T19:00:17.414Z,54.60
2023-01-07T19:04:19.138Z,56.70
2023-01-07T19:08:21.237Z,57.90
2023-01-07T19:12:23.165Z,73.93
2023-01-07T19:16:25.331Z,62.80
2023-01-07T19:20:27.019Z,73.75
2023-01-07T19:24:29.175Z,66.35
2023-01-07T19:28:32.671Z,63.55
2023-01-07T19:32:34.752Z,74.40
2023-01-07T19:36:36.754Z,70.22
2023-01-07T19:40:45.442Z,66.95
2023-01-07T19:44:47.071Z,65.80
2023-01-07T19:48:49.550Z,66.15
2023-01-07T19:52:51.280Z,66.47
2023-01-07T19:56:54.160Z,70.00
2023-01-07T20:01:04.714Z,73.65
2023-01-07T20:05:07.209Z,68.45
2023-01-07T20:09:11.275Z,74.18
2023-01-07T20:13:13.065Z,70.03
2023-01-07T20:17:15.035Z,73.45
2023-01-07T20:21:20.405Z,80.68
2023-01-07T20:25:22.127Z,73.97
2023-01-07T20:29:24.179Z,73.25
2023-01-07T20:33:26.096Z,75.13
2023-01-07T20:37:28.196Z,71.88
2023-01-07T20:41:30.173Z,73.53
2023-01-07T20:45:33.427Z,75.10
2023-01-07T20:49:35.402Z,75.15
2023-01-07T20:53:37.731Z,78.05
2023-01-07T20:57:39.455Z,75.13
2023-01-07T21:01:41.863Z,78.18
2023-01-07T21:05:45.901Z,78.30
2023-01-07T21:09:47.601Z,99.47
2023-01-07T21:13:50.698Z,79.38
2023-01-07T21:17:53.856Z,87.95
2023-01-07T21:21:55.787Z,78.28
2023-01-07T21:25:57.680Z,74.35
2023-01-07T21:29:59.631Z,75.35
2023-01-07T21:34:01.428Z,67.70
2023-01-07T21:38:03.576Z,71.70
2023-01-07T21:42:06.166Z,70.30
2023-01-07T21:46:08.922Z,62.20
2023-01-07T21:50:10.792Z,71.15
2023-01-07T21:54:12.810Z,66.70
2023-01-07T21:58:14.536Z,68.47
2023-01-07T22:02:18.699Z,63.90
2023-01-07T22:06:26.023Z,59.13
2023-01-07T22:10:27.692Z,62.25
2023-01-07T22:14:29.669Z,57.83
2023-01-07T22:18:31.829Z,58.30
2023-01-07T22:22:33.462Z,57.67
2023-01-07T22:26:36.229Z,57.28
2023-01-07T22:30:43.930Z,56.60
2023-01-07T22:34:45.968Z,51.28
2023-01-07T22:38:48.644Z,52.33
2023-01-07T22:42:55.897Z,53.13
2023-01-07T22:46:58.135Z,51.73
2023-01-07T22:51:27.023Z,50.92
2023-01-07T22:55:29.267Z,49.33
2023-01-07T22:59:31.063Z,51.65
2023-01-07T23:03:33.235Z,47.47
2023-01-07T23:07:34.952Z,47.42
2023-01-07T23:11:48.889Z,46.17
2023-01-07T23:15:50.495Z,46.85
2023-01-07T23:19:52.512Z,50.17
2023-01-07T23:23:54.488Z,51.75
2023-01-07T23:27:56.494Z,50.88
2023-01-07T23:31:58.720Z,53.40
2023-01-07T23:36:02.886Z,51.03
2023-01-07T23:40:06.854Z,54.03
2023-01-07T23:44:08.848Z,52.00
2023-01-07T23:48:10.528Z,53.05
2023-01-07T23:52:12.526Z,53.22
2023-01-07T23:56:18.694Z,54.80
